createdAt,value
2018-12-01T00:02:45.648Z,11.50
2018-12-01T00:06:59.285Z,9.40
2018-12-01T00:11:08.672Z,9.57
2018-12-01T00:15:23.067Z,9.30
2018-12-01T00:19:35.069Z,10.77
2018-12-01T00:23:43.162Z,11.07
2018-12-01T00:27:50.549Z,11.27
2018-12-01T00:31:58.232Z,8.70
2018-12-01T00:36:05.042Z,10.77
2018-12-01T00:40:22.068Z,10.07
2018-12-01T00:44:34.088Z,12.20
2018-12-01T00:48:42.654Z,12.37
2018-12-01T00:52:50.325Z,10.60
2018-12-01T00:56:57.246Z,9.17
2018-12-01T01:01:04.116Z,7.27
2018-12-01T01:05:12.457Z,6.47
2018-12-01T01:09:19.237Z,10.13
2018-12-01T01:13:26.942Z,8.30
2018-12-01T01:17:33.668Z,10.67
2018-12-01T01:21:42.655Z,8.50
2018-12-01T01:25:49.399Z,8.27
2018-12-01T01:29:56.413Z,9.17
2018-12-01T01:34:06.043Z,9.83
2018-12-01T01:38:13.916Z,10.73
2018-12-01T01:42:20.774Z,10.03
2018-12-01T01:46:27.998Z,9.80
2018-12-01T01:50:37.808Z,10.10
2018-12-01T01:54:45.659Z,7.03
2018-12-01T01:58:52.488Z,8.90
2018-12-01T02:02:59.470Z,9.33
2018-12-01T02:07:06.252Z,10.80
2018-12-01T02:11:13.870Z,10.07
2018-12-01T02:15:20.838Z,9.10
2018-12-01T02:19:31.343Z,6.67
2018-12-01T02:23:38.090Z,8.27
2018-12-01T02:27:46.067Z,11.63
2018-12-01T02:31:52.833Z,11.50
2018-12-01T02:36:00.283Z,11.83
2018-12-01T02:40:10.411Z,6.67
2018-12-01T02:45:10.859Z,8.07
2018-12-01T02:49:17.777Z,8.83
2018-12-01T02:53:24.858Z,6.67
2018-12-01T02:57:31.618Z,8.83
2018-12-01T03:01:39.163Z,10.73
2018-12-01T03:05:46.085Z,7.70
2018-12-01T03:09:53.201Z,11.37
2018-12-01T03:14:00.759Z,10.43
2018-12-01T03:18:08.018Z,7.23
2018-12-01T03:22:17.918Z,11.00
2018-12-01T03:26:25.439Z,7.60
2018-12-01T03:30:32.198Z,8.03
2018-12-01T03:34:40.151Z,12.00
2018-12-01T03:38:46.925Z,12.30
2018-12-01T03:42:54.711Z,11.33
2018-12-01T03:47:01.445Z,12.00
2018-12-01T03:51:09.988Z,10.27
2018-12-01T03:55:34.640Z,9.77
2018-12-01T03:59:41.589Z,9.80
2018-12-01T04:03:47.993Z,11.20
2018-12-01T04:07:55.813Z,7.67
2018-12-01T04:12:03.427Z,11.10
2018-12-01T04:16:10.498Z,11.53
2018-12-01T04:20:17.704Z,9.53
2018-12-01T04:24:24.885Z,11.83
2018-12-01T04:32:55.375Z,11.67
2018-12-01T04:37:03.389Z,11.00
2018-12-01T04:41:10.324Z,12.90
2018-12-01T04:45:17.657Z,11.10
2018-12-01T04:49:24.581Z,13.53
2018-12-01T04:53:31.770Z,11.17
2018-12-01T04:57:39.357Z,11.10
2018-12-01T05:01:46.319Z,10.50
2018-12-01T05:05:53.767Z,10.23
2018-12-01T05:10:01.649Z,13.03
2018-12-01T05:14:09.475Z,10.93
2018-12-01T05:18:16.434Z,12.30
2018-12-01T05:22:25.782Z,13.40
2018-12-01T05:26:39.163Z,12.37
2018-12-01T05:30:47.368Z,14.30
2018-12-01T05:34:54.704Z,12.60
2018-12-01T05:39:01.809Z,14.10
2018-12-01T05:43:09.612Z,11.83
2018-12-01T05:47:17.727Z,14.73
2018-12-01T05:51:25.597Z,12.77
2018-12-01T05:55:31.181Z,11.53
2018-12-01T05:59:38.122Z,14.63
2018-12-01T06:03:45.140Z,12.63
2018-12-01T06:07:52.195Z,12.20
2018-12-01T06:11:59.293Z,11.87
2018-12-01T06:16:06.325Z,13.90
2018-12-01T06:20:22.182Z,15.00
2018-12-01T06:24:30.644Z,13.77
2018-12-01T06:28:37.496Z,10.17
2018-12-01T06:32:44.842Z,13.47
2018-12-01T06:36:53.231Z,14.40
2018-12-01T06:41:00.137Z,14.43
2018-12-01T06:45:12.500Z,13.37
2018-12-01T06:49:19.474Z,14.50
2018-12-01T06:53:28.020Z,11.60
2018-12-01T06:57:35.007Z,14.40
2018-12-01T07:01:42.233Z,15.53
2018-12-01T07:05:51.011Z,15.43
2018-12-01T07:09:59.666Z,15.37
2018-12-01T07:14:07.706Z,13.73
2018-12-01T07:19:14.067Z,16.20
2018-12-01T07:23:22.154Z,16.87
2018-12-01T07:27:31.084Z,16.60
2018-12-01T07:31:41.149Z,14.77
2018-12-01T07:35:47.647Z,15.50
2018-12-01T07:39:54.675Z,16.60
2018-12-01T07:44:02.858Z,16.07
2018-12-01T07:48:10.306Z,19.20
2018-12-01T07:52:18.450Z,13.63
2018-12-01T07:56:25.366Z,16.33
2018-12-01T08:00:36.024Z,14.17
2018-12-01T08:04:43.575Z,13.93
2018-12-01T08:08:52.379Z,17.20
2018-12-01T08:13:00.604Z,18.53
2018-12-01T08:17:13.027Z,17.47
2018-12-01T08:21:24.102Z,18.87
2018-12-01T08:25:31.930Z,19.80
2018-12-01T08:30:00.925Z,20.40
2018-12-01T08:34:13.073Z,17.73
2018-12-01T08:38:24.407Z,16.40
2018-12-01T08:46:42.062Z,22.63
2018-12-01T08:50:56.892Z,21.60
2018-12-01T08:55:05.424Z,22.93
2018-12-01T08:59:16.239Z,19.50
2018-12-01T09:03:25.659Z,23.90
2018-12-01T09:07:39.143Z,20.67
2018-12-01T09:11:46.460Z,21.43
2018-12-01T09:15:56.428Z,22.40
2018-12-01T09:20:03.778Z,23.67
2018-12-01T09:24:13.074Z,24.93
2018-12-01T09:28:21.768Z,23.50
2018-12-01T09:32:30.048Z,24.57
2018-12-01T09:36:38.277Z,26.07
2018-12-01T09:40:47.127Z,25.83
2018-12-01T09:44:55.931Z,23.70
2018-12-01T09:49:02.966Z,24.13
2018-12-01T09:53:09.950Z,25.53
2018-12-01T09:57:19.900Z,23.70
2018-12-01T10:01:26.791Z,23.30
2018-12-01T10:05:44.951Z,24.80
2018-12-01T10:09:51.978Z,27.30
2018-12-01T10:14:20.704Z,25.13
2018-12-01T10:18:27.937Z,23.20
2018-12-01T10:22:36.489Z,22.77
2018-12-01T10:26:48.598Z,23.97
2018-12-01T10:30:55.934Z,25.87
2018-12-01T10:35:03.504Z,24.63
2018-12-01T10:39:11.962Z,24.97
2018-12-01T10:43:41.760Z,25.63
2018-12-01T10:47:49.208Z,21.67
2018-12-01T10:51:57.166Z,27.30
2018-12-01T10:56:06.270Z,23.30
2018-12-01T11:00:33.291Z,24.53
2018-12-01T11:04:41.816Z,24.97
2018-12-01T11:08:48.607Z,25.83
2018-12-01T11:12:56.122Z,24.97
2018-12-01T11:17:04.357Z,26.60
2018-12-01T11:21:11.858Z,27.20
2018-12-01T11:25:18.657Z,25.70
2018-12-01T11:29:30.206Z,24.93
2018-12-01T11:33:37.102Z,26.77
2018-12-01T11:37:45.429Z,26.50
2018-12-01T11:41:52.041Z,25.93
2018-12-01T11:45:59.146Z,25.93
2018-12-01T11:50:10.136Z,28.37
2018-12-01T11:54:18.809Z,25.97
2018-12-01T11:58:25.738Z,27.83
2018-12-01T12:02:32.658Z,24.23
2018-12-01T12:06:40.399Z,28.40
2018-12-01T12:10:48.148Z,27.30
2018-12-01T12:14:57.066Z,25.73
2018-12-01T12:19:04.236Z,27.50
2018-12-01T12:23:11.108Z,26.70
2018-12-01T12:27:18.025Z,26.90
2018-12-01T12:31:25.127Z,28.73
2018-12-01T12:35:32.483Z,28.10
2018-12-01T12:39:42.622Z,28.13
2018-12-01T12:43:50.702Z,28.13
2018-12-01T12:48:00.955Z,29.37
2018-12-01T12:52:08.983Z,30.07
2018-12-01T12:56:17.509Z,28.43
2018-12-01T13:04:41.555Z,30.60
2018-12-01T13:08:48.825Z,30.47
2018-12-01T13:12:57.013Z,30.43
2018-12-01T13:17:04.361Z,28.87
2018-12-01T13:21:11.323Z,31.13
2018-12-01T13:25:20.522Z,33.00
2018-12-01T13:29:28.515Z,32.00
2018-12-01T13:33:37.253Z,32.33
2018-12-01T13:37:44.240Z,30.73
2018-12-01T13:41:51.568Z,33.40
2018-12-01T13:45:58.606Z,32.67
2018-12-01T13:50:15.551Z,31.23
2018-12-01T13:54:22.619Z,31.77
2018-12-01T13:58:29.964Z,37.07
2018-12-01T14:02:37.584Z,35.90
2018-12-01T14:06:46.773Z,33.80
2018-12-01T14:10:56.779Z,45.27
2018-12-01T14:15:06.859Z,41.37
2018-12-01T14:19:15.062Z,42.93
2018-12-01T14:23:23.570Z,40.93
2018-12-01T14:27:30.691Z,37.80
2018-12-01T14:31:41.036Z,35.73
2018-12-01T14:35:48.010Z,32.73
2018-12-01T14:39:55.360Z,32.20
2018-12-01T14:44:02.379Z,31.20
2018-12-01T14:48:13.476Z,33.00
2018-12-01T14:52:23.511Z,35.07
2018-12-01T14:56:32.157Z,34.97
2018-12-01T15:00:39.473Z,31.67
2018-12-01T15:08:57.555Z,31.77
2018-12-01T15:13:05.650Z,32.67
2018-12-01T15:17:13.475Z,32.93
2018-12-01T15:21:24.432Z,38.83
2018-12-01T15:25:36.909Z,33.63
2018-12-01T15:29:45.910Z,34.30
2018-12-01T15:33:52.433Z,31.97
2018-12-01T15:38:00.419Z,37.83
2018-12-01T15:42:07.681Z,35.80
2018-12-01T15:46:15.161Z,32.17
2018-12-01T15:50:47.223Z,34.40
2018-12-01T15:54:55.361Z,34.50
2018-12-01T15:59:05.239Z,36.33
2018-12-01T16:03:13.018Z,35.93
2018-12-01T16:07:22.420Z,34.57
2018-12-01T16:11:50.694Z,34.43
2018-12-01T16:16:08.046Z,33.90
2018-12-01T16:20:16.926Z,36.07
2018-12-01T16:24:24.862Z,39.70
2018-12-01T16:28:32.065Z,39.07
2018-12-01T16:32:39.733Z,39.60
2018-12-01T16:36:49.117Z,43.40
2018-12-01T16:41:35.110Z,44.17
2018-12-01T16:45:43.749Z,45.23
2018-12-01T16:49:51.036Z,42.47
2018-12-01T16:53:58.247Z,43.70
2018-12-01T16:58:08.025Z,44.33
2018-12-01T17:02:15.074Z,47.13
2018-12-01T17:06:22.223Z,43.63
2018-12-01T17:10:32.666Z,45.47
2018-12-01T17:14:39.759Z,45.67
2018-12-01T17:18:46.953Z,46.40
2018-12-01T17:22:57.737Z,47.93
2018-12-01T17:27:07.413Z,43.47
2018-12-01T17:31:18.990Z,47.50
2018-12-01T17:35:30.748Z,44.57
2018-12-01T17:39:58.110Z,43.03
2018-12-01T17:44:17.139Z,41.90
2018-12-01T17:48:24.467Z,47.07
2018-12-01T17:52:32.374Z,45.50
2018-12-01T17:57:00.396Z,44.90
2018-12-01T18:01:09.086Z,42.73
2018-12-01T18:05:30.827Z,41.93
2018-12-01T18:09:38.291Z,45.60
2018-12-01T18:13:45.335Z,47.60
2018-12-01T18:17:58.434Z,45.10
2018-12-01T18:22:08.167Z,46.30
2018-12-01T18:26:21.286Z,49.20
2018-12-01T18:30:35.443Z,45.73
2018-12-01T18:34:45.912Z,44.57
2018-12-01T18:43:03.675Z,52.30
2018-12-01T18:47:13.147Z,52.10
2018-12-01T18:51:22.256Z,51.93
2018-12-01T18:55:57.100Z,48.60
2018-12-01T19:00:04.192Z,51.00
2018-12-01T19:04:14.122Z,53.93
2018-12-01T19:08:22.612Z,49.63
2018-12-01T19:12:31.246Z,52.13
2018-12-01T19:16:38.375Z,51.60
2018-12-01T19:20:45.236Z,53.17
2018-12-01T19:25:32.465Z,54.57
2018-12-01T19:29:40.145Z,51.60
2018-12-01T19:33:48.179Z,50.13
2018-12-01T19:37:58.128Z,52.47
2018-12-01T19:42:08.368Z,52.43
2018-12-01T19:46:15.822Z,52.97
2018-12-01T19:50:37.687Z,53.70
2018-12-01T19:54:44.690Z,53.03
2018-12-01T19:58:52.126Z,58.40
2018-12-01T20:03:06.549Z,57.33
2018-12-01T20:07:33.636Z,58.30
2018-12-01T20:16:18.968Z,58.90
2018-12-01T20:20:26.142Z,61.00
2018-12-01T20:24:35.284Z,62.87
2018-12-01T20:28:59.690Z,66.70
2018-12-01T20:33:08.556Z,63.30
2018-12-01T20:37:21.058Z,64.80
2018-12-01T20:41:29.496Z,64.27
2018-12-01T20:45:37.645Z,66.43
2018-12-01T20:49:45.196Z,66.23
2018-12-01T20:53:52.616Z,68.07
2018-12-01T20:58:23.672Z,72.17
2018-12-01T21:02:30.663Z,74.37
2018-12-01T21:06:39.489Z,62.97
2018-12-01T21:10:53.331Z,65.60
2018-12-01T21:15:21.486Z,67.17
2018-12-01T21:19:31.655Z,66.53
2018-12-01T21:23:39.927Z,64.17
2018-12-01T21:27:50.187Z,66.17
2018-12-01T21:32:00.002Z,68.77
2018-12-01T21:36:07.891Z,70.53
2018-12-01T21:40:21.397Z,65.97
2018-12-01T21:44:27.303Z,67.47
2018-12-01T21:48:34.578Z,72.27
2018-12-01T21:52:41.486Z,68.87
2018-12-01T21:56:48.415Z,70.03
2018-12-01T22:00:59.799Z,74.03
2018-12-01T22:05:47.416Z,69.87
2018-12-01T22:09:54.484Z,71.87
2018-12-01T22:14:02.720Z,68.03
2018-12-01T22:18:33.094Z,67.17
2018-12-01T22:22:40.534Z,71.93
2018-12-01T22:26:47.294Z,70.40
2018-12-01T22:31:16.543Z,69.60
2018-12-01T22:35:25.073Z,70.47
2018-12-01T22:39:32.565Z,71.83
2018-12-01T22:44:00.092Z,69.80
2018-12-01T22:48:19.488Z,70.50
2018-12-01T22:52:27.302Z,73.70
2018-12-01T22:56:37.886Z,68.83
2018-12-01T23:00:58.118Z,70.33
2018-12-01T23:05:06.493Z,73.77
2018-12-01T23:09:15.027Z,71.20
2018-12-01T23:13:22.680Z,75.20
2018-12-01T23:17:30.557Z,77.10
2018-12-01T23:21:43.336Z,73.50
2018-12-01T23:25:50.151Z,76.73
2018-12-01T23:30:00.170Z,72.63
2018-12-01T23:34:07.118Z,75.87
2018-12-01T23:38:16.345Z,79.10
2018-12-01T23:42:23.393Z,76.73
2018-12-01T23:46:34.894Z,77.17
2018-12-01T23:50:45.532Z,77.80
2018-12-01T23:54:53.500Z,81.03
2018-12-01T23:59:00.354Z,77.30
